sensor_id;sensor_type;location;lat;lon;timestamp;P1;durP1;ratioP1;P2;durP2;ratioP2
70800;SDS011;59616;52.170;5.386;2023-06-26T00:02:19;12.48;;;7.03;;
70800;SDS011;59616;52.170;5.386;2023-06-26T00:04:46;13.48;;;7.00;;
70800;SDS011;59616;52.170;5.386;2023-06-26T00:07:13;11.35;;;6.78;;
70800;SDS011;59616;52.170;5.386;2023-06-26T00:09:41;14.38;;;6.75;;
70800;SDS011;59616;52.170;5.386;2023-06-26T00:12:08;12.18;;;6.80;;
70800;SDS011;59616;52.170;5.386;2023-06-26T00:14:35;11.80;;;6.78;;
70800;SDS011;59616;52.170;5.386;2023-06-26T00:17:03;13.77;;;6.68;;
70800;SDS011;59616;52.170;5.386;2023-06-26T00:19:30;12.32;;;6.63;;
70800;SDS011;59616;52.170;5.386;2023-06-26T00:21:57;11.48;;;6.45;;
70800;SDS011;59616;52.170;5.386;2023-06-26T00:24:25;12.02;;;6.05;;
70800;SDS011;59616;52.170;5.386;2023-06-26T00:26:52;11.50;;;5.93;;
70800;SDS011;59616;52.170;5.386;2023-06-26T00:29:19;11.45;;;5.82;;
70800;SDS011;59616;52.170;5.386;2023-06-26T00:31:47;12.02;;;6.30;;
70800;SDS011;59616;52.170;5.386;2023-06-26T00:34:14;9.98;;;5.45;;
70800;SDS011;59616;52.170;5.386;2023-06-26T00:36:44;12.85;;;5.90;;
70800;SDS011;59616;52.170;5.386;2023-06-26T00:39:11;10.75;;;5.93;;
70800;SDS011;59616;52.170;5.386;2023-06-26T00:41:40;12.80;;;5.63;;
70800;SDS011;59616;52.170;5.386;2023-06-26T00:44:07;11.73;;;6.07;;
70800;SDS011;59616;52.170;5.386;2023-06-26T00:46:34;10.20;;;5.57;;
70800;SDS011;59616;52.170;5.386;2023-06-26T00:49:02;10.85;;;6.05;;
70800;SDS011;59616;52.170;5.386;2023-06-26T00:51:30;11.35;;;5.65;;
70800;SDS011;59616;52.170;5.386;2023-06-26T00:53:59;10.57;;;5.78;;
70800;SDS011;59616;52.170;5.386;2023-06-26T00:56:27;11.90;;;6.00;;
70800;SDS011;59616;52.170;5.386;2023-06-26T00:58:55;11.80;;;5.82;;
70800;SDS011;59616;52.170;5.386;2023-06-26T01:01:25;10.85;;;5.65;;
70800;SDS011;59616;52.170;5.386;2023-06-26T01:03:53;11.35;;;6.00;;
70800;SDS011;59616;52.170;5.386;2023-06-26T01:06:21;10.50;;;5.90;;
70800;SDS011;59616;52.170;5.386;2023-06-26T01:08:49;11.57;;;5.88;;
70800;SDS011;59616;52.170;5.386;2023-06-26T01:11:17;11.25;;;5.45;;
70800;SDS011;59616;52.170;5.386;2023-06-26T01:13:45;13.88;;;5.90;;
70800;SDS011;59616;52.170;5.386;2023-06-26T01:16:12;12.50;;;5.32;;
70800;SDS011;59616;52.170;5.386;2023-06-26T01:18:45;11.70;;;5.75;;
70800;SDS011;59616;52.170;5.386;2023-06-26T01:21:15;11.07;;;5.55;;
70800;SDS011;59616;52.170;5.386;2023-06-26T01:26:35;10.02;;;5.22;;
70800;SDS011;59616;52.170;5.386;2023-06-26T01:29:04;11.75;;;5.50;;
70800;SDS011;59616;52.170;5.386;2023-06-26T01:31:33;12.07;;;6.15;;
70800;SDS011;59616;52.170;5.386;2023-06-26T01:34:01;11.68;;;5.75;;
70800;SDS011;59616;52.170;5.386;2023-06-26T01:36:28;12.65;;;5.50;;
70800;SDS011;59616;52.170;5.386;2023-06-26T01:38:56;11.43;;;5.10;;
70800;SDS011;59616;52.170;5.386;2023-06-26T01:41:23;9.63;;;4.80;;
70800;SDS011;59616;52.170;5.386;2023-06-26T01:51:41;8.48;;;3.75;;
70800;SDS011;59616;52.170;5.386;2023-06-26T01:54:13;12.30;;;4.45;;
70800;SDS011;59616;52.170;5.386;2023-06-26T01:56:43;10.32;;;4.30;;
70800;SDS011;59616;52.170;5.386;2023-06-26T01:59:15;11.73;;;4.00;;
70800;SDS011;59616;52.170;5.386;2023-06-26T02:01:44;11.18;;;4.03;;
70800;SDS011;59616;52.170;5.386;2023-06-26T02:04:11;8.88;;;3.80;;
70800;SDS011;59616;52.170;5.386;2023-06-26T02:06:38;8.82;;;4.10;;
70800;SDS011;59616;52.170;5.386;2023-06-26T02:09:06;11.75;;;4.15;;
70800;SDS011;59616;52.170;5.386;2023-06-26T02:11:34;11.18;;;3.80;;
70800;SDS011;59616;52.170;5.386;2023-06-26T02:14:01;8.95;;;3.90;;
70800;SDS011;59616;52.170;5.386;2023-06-26T02:16:29;10.68;;;4.15;;
70800;SDS011;59616;52.170;5.386;2023-06-26T02:18:56;11.88;;;4.03;;
70800;SDS011;59616;52.170;5.386;2023-06-26T02:21:24;8.75;;;3.50;;
70800;SDS011;59616;52.170;5.386;2023-06-26T02:23:53;9.65;;;3.75;;
70800;SDS011;59616;52.170;5.386;2023-06-26T02:26:20;9.75;;;3.80;;
70800;SDS011;59616;52.170;5.386;2023-06-26T02:28:47;9.88;;;3.80;;
70800;SDS011;59616;52.170;5.386;2023-06-26T02:31:15;11.48;;;4.60;;
70800;SDS011;59616;52.170;5.386;2023-06-26T02:33:42;11.48;;;4.20;;
70800;SDS011;59616;52.170;5.386;2023-06-26T02:36:11;12.00;;;4.30;;
70800;SDS011;59616;52.170;5.386;2023-06-26T02:38:39;12.27;;;4.03;;
70800;SDS011;59616;52.170;5.386;2023-06-26T02:41:07;10.95;;;3.70;;
70800;SDS011;59616;52.170;5.386;2023-06-26T02:43:35;12.15;;;3.80;;
70800;SDS011;59616;52.170;5.386;2023-06-26T02:46:02;11.77;;;3.50;;
70800;SDS011;59616;52.170;5.386;2023-06-26T02:48:29;11.10;;;3.97;;
70800;SDS011;59616;52.170;5.386;2023-06-26T02:50:56;12.07;;;4.28;;
70800;SDS011;59616;52.170;5.386;2023-06-26T02:53:27;9.45;;;3.53;;
70800;SDS011;59616;52.170;5.386;2023-06-26T02:55:55;13.43;;;3.78;;
70800;SDS011;59616;52.170;5.386;2023-06-26T02:58:22;12.40;;;3.90;;
70800;SDS011;59616;52.170;5.386;2023-06-26T03:00:49;15.30;;;3.30;;
70800;SDS011;59616;52.170;5.386;2023-06-26T03:03:18;13.15;;;3.85;;
70800;SDS011;59616;52.170;5.386;2023-06-26T03:05:45;11.50;;;3.60;;
70800;SDS011;59616;52.170;5.386;2023-06-26T03:08:12;10.05;;;3.30;;
70800;SDS011;59616;52.170;5.386;2023-06-26T03:10:40;12.52;;;3.78;;
70800;SDS011;59616;52.170;5.386;2023-06-26T03:13:08;8.63;;;3.42;;
70800;SDS011;59616;52.170;5.386;2023-06-26T03:15:36;11.10;;;3.53;;
70800;SDS011;59616;52.170;5.386;2023-06-26T03:18:04;12.15;;;3.85;;
70800;SDS011;59616;52.170;5.386;2023-06-26T03:20:32;12.00;;;3.75;;
70800;SDS011;59616;52.170;5.386;2023-06-26T03:22:59;13.05;;;3.80;;
70800;SDS011;59616;52.170;5.386;2023-06-26T03:25:26;12.80;;;3.88;;
70800;SDS011;59616;52.170;5.386;2023-06-26T03:28:17;12.38;;;3.60;;
70800;SDS011;59616;52.170;5.386;2023-06-26T03:30:45;12.68;;;3.67;;
70800;SDS011;59616;52.170;5.386;2023-06-26T03:33:14;9.68;;;3.45;;
70800;SDS011;59616;52.170;5.386;2023-06-26T03:35:42;11.73;;;3.58;;
70800;SDS011;59616;52.170;5.386;2023-06-26T03:38:12;11.45;;;3.53;;
70800;SDS011;59616;52.170;5.386;2023-06-26T03:40:41;10.65;;;3.72;;
70800;SDS011;59616;52.170;5.386;2023-06-26T03:43:08;12.80;;;4.18;;
70800;SDS011;59616;52.170;5.386;2023-06-26T03:45:44;12.02;;;3.50;;
70800;SDS011;59616;52.170;5.386;2023-06-26T03:48:12;13.27;;;3.58;;
70800;SDS011;59616;52.170;5.386;2023-06-26T03:50:40;12.18;;;3.70;;
70800;SDS011;59616;52.170;5.386;2023-06-26T03:53:08;14.25;;;3.80;;
70800;SDS011;59616;52.170;5.386;2023-06-26T03:55:36;16.65;;;4.05;;
70800;SDS011;59616;52.170;5.386;2023-06-26T03:58:05;12.60;;;3.90;;
70800;SDS011;59616;52.170;5.386;2023-06-26T04:00:32;11.25;;;3.67;;
70800;SDS011;59616;52.170;5.386;2023-06-26T04:02:59;14.30;;;3.78;;
70800;SDS011;59616;52.170;5.386;2023-06-26T04:05:29;13.10;;;3.78;;
70800;SDS011;59616;52.170;5.386;2023-06-26T04:07:56;16.10;;;4.00;;
70800;SDS011;59616;52.170;5.386;2023-06-26T04:10:24;12.32;;;3.45;;
70800;SDS011;59616;52.170;5.386;2023-06-26T04:12:52;15.90;;;3.80;;
70800;SDS011;59616;52.170;5.386;2023-06-26T04:15:19;15.60;;;4.20;;
70800;SDS011;59616;52.170;5.386;2023-06-26T04:17:46;12.60;;;3.53;;
70800;SDS011;59616;52.170;5.386;2023-06-26T04:20:14;13.88;;;3.70;;
70800;SDS011;59616;52.170;5.386;2023-06-26T04:22:41;13.23;;;3.80;;
70800;SDS011;59616;52.170;5.386;2023-06-26T04:25:09;15.85;;;4.03;;
70800;SDS011;59616;52.170;5.386;2023-06-26T04:27:38;10.23;;;3.50;;
70800;SDS011;59616;52.170;5.386;2023-06-26T04:30:07;14.68;;;3.83;;
70800;SDS011;59616;52.170;5.386;2023-06-26T04:32:34;15.00;;;3.88;;
70800;SDS011;59616;52.170;5.386;2023-06-26T04:35:01;15.15;;;3.80;;
70800;SDS011;59616;52.170;5.386;2023-06-26T04:37:29;12.15;;;3.83;;
70800;SDS011;59616;52.170;5.386;2023-06-26T04:39:56;15.77;;;3.90;;
70800;SDS011;59616;52.170;5.386;2023-06-26T04:42:23;11.52;;;3.58;;
70800;SDS011;59616;52.170;5.386;2023-06-26T04:44:51;18.73;;;3.90;;
70800;SDS011;59616;52.170;5.386;2023-06-26T04:47:18;16.33;;;3.63;;
70800;SDS011;59616;52.170;5.386;2023-06-26T04:49:45;17.25;;;4.13;;
70800;SDS011;59616;52.170;5.386;2023-06-26T04:52:13;11.00;;;3.50;;
70800;SDS011;59616;52.170;5.386;2023-06-26T04:54:41;12.90;;;3.58;;
70800;SDS011;59616;52.170;5.386;2023-06-26T04:57:08;14.80;;;3.40;;
70800;SDS011;59616;52.170;5.386;2023-06-26T04:59:36;13.20;;;3.88;;
70800;SDS011;59616;52.170;5.386;2023-06-26T05:02:03;11.38;;;3.50;;
70800;SDS011;59616;52.170;5.386;2023-06-26T05:04:31;13.80;;;3.20;;
70800;SDS011;59616;52.170;5.386;2023-06-26T05:06:59;11.48;;;3.78;;
70800;SDS011;59616;52.170;5.386;2023-06-26T05:09:26;13.20;;;3.72;;
70800;SDS011;59616;52.170;5.386;2023-06-26T05:11:53;11.77;;;3.20;;
70800;SDS011;59616;52.170;5.386;2023-06-26T05:14:21;12.75;;;3.83;;
70800;SDS011;59616;52.170;5.386;2023-06-26T05:16:50;9.80;;;3.20;;
70800;SDS011;59616;52.170;5.386;2023-06-26T05:19:17;10.25;;;3.40;;
70800;SDS011;59616;52.170;5.386;2023-06-26T05:21:45;10.10;;;3.10;;
70800;SDS011;59616;52.170;5.386;2023-06-26T05:24:13;11.27;;;3.17;;
70800;SDS011;59616;52.170;5.386;2023-06-26T05:26:40;11.20;;;3.28;;
70800;SDS011;59616;52.170;5.386;2023-06-26T05:29:07;12.73;;;3.42;;
70800;SDS011;59616;52.170;5.386;2023-06-26T05:31:35;9.18;;;3.15;;
70800;SDS011;59616;52.170;5.386;2023-06-26T05:34:04;11.82;;;2.92;;
70800;SDS011;59616;52.170;5.386;2023-06-26T05:36:32;9.52;;;2.63;;
70800;SDS011;59616;52.170;5.386;2023-06-26T05:39:00;6.93;;;2.70;;
70800;SDS011;59616;52.170;5.386;2023-06-26T05:41:27;9.10;;;2.55;;
70800;SDS011;59616;52.170;5.386;2023-06-26T05:43:55;9.23;;;2.78;;
70800;SDS011;59616;52.170;5.386;2023-06-26T05:46:22;8.50;;;2.63;;
70800;SDS011;59616;52.170;5.386;2023-06-26T05:48:49;10.88;;;2.70;;
70800;SDS011;59616;52.170;5.386;2023-06-26T05:51:17;9.73;;;2.60;;
70800;SDS011;59616;52.170;5.386;2023-06-26T05:53:44;8.80;;;2.85;;
70800;SDS011;59616;52.170;5.386;2023-06-26T05:56:12;8.88;;;2.55;;
70800;SDS011;59616;52.170;5.386;2023-06-26T05:58:39;8.60;;;2.10;;
70800;SDS011;59616;52.170;5.386;2023-06-26T06:01:07;10.00;;;2.30;;
70800;SDS011;59616;52.170;5.386;2023-06-26T06:03:34;8.68;;;2.42;;
70800;SDS011;59616;52.170;5.386;2023-06-26T06:06:02;7.30;;;2.15;;
70800;SDS011;59616;52.170;5.386;2023-06-26T06:08:29;6.72;;;2.03;;
70800;SDS011;59616;52.170;5.386;2023-06-26T06:10:57;7.82;;;2.10;;
70800;SDS011;59616;52.170;5.386;2023-06-26T06:13:24;9.18;;;2.13;;
70800;SDS011;59616;52.170;5.386;2023-06-26T06:15:51;7.20;;;2.00;;
70800;SDS011;59616;52.170;5.386;2023-06-26T06:18:18;6.95;;;2.15;;
70800;SDS011;59616;52.170;5.386;2023-06-26T06:20:46;9.77;;;2.30;;
70800;SDS011;59616;52.170;5.386;2023-06-26T06:23:13;8.93;;;2.42;;
70800;SDS011;59616;52.170;5.386;2023-06-26T06:25:40;7.43;;;2.13;;
70800;SDS011;59616;52.170;5.386;2023-06-26T06:28:08;6.72;;;2.15;;
70800;SDS011;59616;52.170;5.386;2023-06-26T06:30:35;6.57;;;1.90;;
70800;SDS011;59616;52.170;5.386;2023-06-26T06:33:11;6.55;;;2.03;;
70800;SDS011;59616;52.170;5.386;2023-06-26T06:35:38;9.98;;;2.10;;
70800;SDS011;59616;52.170;5.386;2023-06-26T06:38:05;7.90;;;2.08;;
70800;SDS011;59616;52.170;5.386;2023-06-26T06:40:33;6.68;;;1.95;;
70800;SDS011;59616;52.170;5.386;2023-06-26T06:43:00;7.55;;;1.98;;
70800;SDS011;59616;52.170;5.386;2023-06-26T06:45:27;9.65;;;2.80;;
70800;SDS011;59616;52.170;5.386;2023-06-26T06:47:54;6.20;;;2.00;;
70800;SDS011;59616;52.170;5.386;2023-06-26T06:50:22;6.00;;;2.15;;
70800;SDS011;59616;52.170;5.386;2023-06-26T06:52:49;7.47;;;2.40;;
70800;SDS011;59616;52.170;5.386;2023-06-26T06:55:16;5.70;;;1.90;;
70800;SDS011;59616;52.170;5.386;2023-06-26T06:57:44;6.97;;;2.00;;
70800;SDS011;59616;52.170;5.386;2023-06-26T07:00:12;6.60;;;2.08;;
70800;SDS011;59616;52.170;5.386;2023-06-26T07:02:42;7.93;;;1.95;;
70800;SDS011;59616;52.170;5.386;2023-06-26T07:05:10;6.57;;;2.42;;
70800;SDS011;59616;52.170;5.386;2023-06-26T07:07:38;9.32;;;2.47;;
70800;SDS011;59616;52.170;5.386;2023-06-26T07:10:07;7.93;;;2.10;;
70800;SDS011;59616;52.170;5.386;2023-06-26T07:12:35;5.45;;;1.85;;
70800;SDS011;59616;52.170;5.386;2023-06-26T07:15:02;6.95;;;2.35;;
70800;SDS011;59616;52.170;5.386;2023-06-26T07:17:31;8.43;;;2.45;;
70800;SDS011;59616;52.170;5.386;2023-06-26T07:19:59;8.43;;;2.28;;
70800;SDS011;59616;52.170;5.386;2023-06-26T07:22:27;7.25;;;2.20;;
70800;SDS011;59616;52.170;5.386;2023-06-26T07:24:54;7.40;;;2.35;;
70800;SDS011;59616;52.170;5.386;2023-06-26T07:27:21;8.70;;;2.63;;
70800;SDS011;59616;52.170;5.386;2023-06-26T07:29:48;7.82;;;2.50;;
70800;SDS011;59616;52.170;5.386;2023-06-26T07:32:15;7.68;;;2.42;;
70800;SDS011;59616;52.170;5.386;2023-06-26T07:34:43;7.75;;;2.28;;
70800;SDS011;59616;52.170;5.386;2023-06-26T07:37:10;9.90;;;2.70;;
70800;SDS011;59616;52.170;5.386;2023-06-26T07:39:37;8.07;;;2.30;;
70800;SDS011;59616;52.170;5.386;2023-06-26T07:42:04;9.52;;;2.40;;
70800;SDS011;59616;52.170;5.386;2023-06-26T07:44:31;7.45;;;2.40;;
70800;SDS011;59616;52.170;5.386;2023-06-26T07:46:59;7.05;;;2.42;;
70800;SDS011;59616;52.170;5.386;2023-06-26T07:49:26;7.75;;;2.15;;
70800;SDS011;59616;52.170;5.386;2023-06-26T07:51:53;8.38;;;2.30;;
70800;SDS011;59616;52.170;5.386;2023-06-26T07:54:21;8.38;;;2.72;;
70800;SDS011;59616;52.170;5.386;2023-06-26T07:56:52;7.18;;;2.35;;
70800;SDS011;59616;52.170;5.386;2023-06-26T07:59:30;8.70;;;2.60;;
70800;SDS011;59616;52.170;5.386;2023-06-26T08:01:58;8.15;;;2.50;;
70800;SDS011;59616;52.170;5.386;2023-06-26T08:04:26;6.95;;;2.38;;
70800;SDS011;59616;52.170;5.386;2023-06-26T08:06:55;10.48;;;2.55;;
70800;SDS011;59616;52.170;5.386;2023-06-26T08:09:25;7.35;;;2.13;;
70800;SDS011;59616;52.170;5.386;2023-06-26T08:11:53;6.63;;;2.30;;
70800;SDS011;59616;52.170;5.386;2023-06-26T08:14:21;6.95;;;2.17;;
70800;SDS011;59616;52.170;5.386;2023-06-26T08:16:48;8.05;;;2.20;;
70800;SDS011;59616;52.170;5.386;2023-06-26T08:19:16;5.35;;;1.95;;
70800;SDS011;59616;52.170;5.386;2023-06-26T08:21:43;8.02;;;2.40;;
70800;SDS011;59616;52.170;5.386;2023-06-26T08:24:11;9.02;;;2.53;;
70800;SDS011;59616;52.170;5.386;2023-06-26T08:26:47;6.97;;;2.03;;
70800;SDS011;59616;52.170;5.386;2023-06-26T08:29:15;6.63;;;1.92;;
70800;SDS011;59616;52.170;5.386;2023-06-26T08:31:43;8.43;;;2.10;;
70800;SDS011;59616;52.170;5.386;2023-06-26T08:34:10;9.98;;;2.10;;
70800;SDS011;59616;52.170;5.386;2023-06-26T08:36:37;5.93;;;1.95;;
70800;SDS011;59616;52.170;5.386;2023-06-26T08:39:05;7.75;;;1.73;;
70800;SDS011;59616;52.170;5.386;2023-06-26T08:41:32;7.72;;;1.77;;
70800;SDS011;59616;52.170;5.386;2023-06-26T08:43:59;5.45;;;1.58;;
70800;SDS011;59616;52.170;5.386;2023-06-26T08:46:28;6.20;;;1.67;;
70800;SDS011;59616;52.170;5.386;2023-06-26T08:48:55;8.88;;;1.70;;
70800;SDS011;59616;52.170;5.386;2023-06-26T08:51:23;7.00;;;1.83;;
70800;SDS011;59616;52.170;5.386;2023-06-26T08:53:56;5.28;;;1.58;;
70800;SDS011;59616;52.170;5.386;2023-06-26T08:56:24;7.90;;;1.90;;
70800;SDS011;59616;52.170;5.386;2023-06-26T08:59:12;5.97;;;1.70;;
70800;SDS011;59616;52.170;5.386;2023-06-26T09:01:40;5.68;;;1.67;;
70800;SDS011;59616;52.170;5.386;2023-06-26T09:04:08;6.18;;;1.52;;
70800;SDS011;59616;52.170;5.386;2023-06-26T09:06:35;6.45;;;1.60;;
70800;SDS011;59616;52.170;5.386;2023-06-26T09:09:03;7.38;;;1.80;;
70800;SDS011;59616;52.170;5.386;2023-06-26T09:11:30;4.50;;;1.50;;
70800;SDS011;59616;52.170;5.386;2023-06-26T09:13:58;6.63;;;1.58;;
70800;SDS011;59616;52.170;5.386;2023-06-26T09:16:26;6.65;;;1.70;;
70800;SDS011;59616;52.170;5.386;2023-06-26T09:18:55;12.88;;;1.80;;
70800;SDS011;59616;52.170;5.386;2023-06-26T09:21:22;5.38;;;1.60;;
70800;SDS011;59616;52.170;5.386;2023-06-26T09:23:50;6.63;;;1.50;;
70800;SDS011;59616;52.170;5.386;2023-06-26T09:26:19;7.93;;;1.60;;
70800;SDS011;59616;52.170;5.386;2023-06-26T09:28:48;5.20;;;1.33;;
70800;SDS011;59616;52.170;5.386;2023-06-26T09:31:16;7.90;;;1.40;;
70800;SDS011;59616;52.170;5.386;2023-06-26T09:34:04;7.28;;;1.77;;
70800;SDS011;59616;52.170;5.386;2023-06-26T09:36:33;6.57;;;1.40;;
70800;SDS011;59616;52.170;5.386;2023-06-26T09:39:06;6.57;;;1.60;;
70800;SDS011;59616;52.170;5.386;2023-06-26T09:41:37;7.07;;;1.60;;
70800;SDS011;59616;52.170;5.386;2023-06-26T09:44:05;6.57;;;1.50;;
70800;SDS011;59616;52.170;5.386;2023-06-26T09:46:34;6.22;;;1.48;;
70800;SDS011;59616;52.170;5.386;2023-06-26T09:49:02;5.50;;;1.40;;
70800;SDS011;59616;52.170;5.386;2023-06-26T09:51:31;5.55;;;1.52;;
70800;SDS011;59616;52.170;5.386;2023-06-26T09:53:59;5.38;;;1.60;;
70800;SDS011;59616;52.170;5.386;2023-06-26T09:56:27;8.75;;;1.80;;
70800;SDS011;59616;52.170;5.386;2023-06-26T09:58:58;8.10;;;1.75;;
70800;SDS011;59616;52.170;5.386;2023-06-26T10:01:30;6.25;;;1.50;;
70800;SDS011;59616;52.170;5.386;2023-06-26T10:03:58;5.75;;;1.60;;
70800;SDS011;59616;52.170;5.386;2023-06-26T10:06:35;4.10;;;1.40;;
70800;SDS011;59616;52.170;5.386;2023-06-26T10:09:03;3.80;;;1.30;;
70800;SDS011;59616;52.170;5.386;2023-06-26T10:11:36;8.20;;;1.52;;
70800;SDS011;59616;52.170;5.386;2023-06-26T10:14:04;4.57;;;1.23;;
70800;SDS011;59616;52.170;5.386;2023-06-26T10:16:44;5.03;;;1.65;;
70800;SDS011;59616;52.170;5.386;2023-06-26T10:19:12;5.70;;;1.40;;
70800;SDS011;59616;52.170;5.386;2023-06-26T10:21:40;2.95;;;1.10;;
70800;SDS011;59616;52.170;5.386;2023-06-26T10:24:08;7.60;;;1.50;;
70800;SDS011;59616;52.170;5.386;2023-06-26T10:26:41;8.02;;;1.40;;
70800;SDS011;59616;52.170;5.386;2023-06-26T10:29:11;3.63;;;1.20;;
70800;SDS011;59616;52.170;5.386;2023-06-26T10:31:40;4.25;;;1.30;;
70800;SDS011;59616;52.170;5.386;2023-06-26T10:34:12;4.22;;;1.48;;
70800;SDS011;59616;52.170;5.386;2023-06-26T10:36:39;5.35;;;1.33;;
70800;SDS011;59616;52.170;5.386;2023-06-26T10:39:07;9.13;;;1.30;;
70800;SDS011;59616;52.170;5.386;2023-06-26T10:41:39;6.20;;;1.50;;
70800;SDS011;59616;52.170;5.386;2023-06-26T10:44:32;5.82;;;1.35;;
70800;SDS011;59616;52.170;5.386;2023-06-26T10:47:07;4.20;;;1.27;;
70800;SDS011;59616;52.170;5.386;2023-06-26T10:49:34;5.18;;;1.40;;
70800;SDS011;59616;52.170;5.386;2023-06-26T10:52:02;5.40;;;1.60;;
70800;SDS011;59616;52.170;5.386;2023-06-26T10:54:30;6.70;;;1.73;;
70800;SDS011;59616;52.170;5.386;2023-06-26T10:56:59;7.97;;;1.70;;
70800;SDS011;59616;52.170;5.386;2023-06-26T10:59:29;5.40;;;1.45;;
70800;SDS011;59616;52.170;5.386;2023-06-26T11:01:58;7.05;;;1.83;;
70800;SDS011;59616;52.170;5.386;2023-06-26T11:04:42;5.13;;;1.30;;
70800;SDS011;59616;52.170;5.386;2023-06-26T11:07:29;5.07;;;1.55;;
70800;SDS011;59616;52.170;5.386;2023-06-26T11:09:59;4.85;;;1.50;;
70800;SDS011;59616;52.170;5.386;2023-06-26T11:12:34;3.25;;;1.20;;
70800;SDS011;59616;52.170;5.386;2023-06-26T11:15:02;2.38;;;1.00;;
70800;SDS011;59616;52.170;5.386;2023-06-26T11:17:29;3.15;;;1.20;;
70800;SDS011;59616;52.170;5.386;2023-06-26T11:19:56;5.55;;;1.52;;
70800;SDS011;59616;52.170;5.386;2023-06-26T11:22:24;4.03;;;1.20;;
70800;SDS011;59616;52.170;5.386;2023-06-26T11:24:53;5.35;;;1.30;;
70800;SDS011;59616;52.170;5.386;2023-06-26T11:27:20;3.97;;;1.40;;
70800;SDS011;59616;52.170;5.386;2023-06-26T11:29:50;4.50;;;1.42;;
70800;SDS011;59616;52.170;5.386;2023-06-26T11:32:17;8.25;;;1.50;;
70800;SDS011;59616;52.170;5.386;2023-06-26T11:34:44;3.50;;;1.20;;
70800;SDS011;59616;52.170;5.386;2023-06-26T11:37:17;3.45;;;1.20;;
70800;SDS011;59616;52.170;5.386;2023-06-26T11:39:44;3.25;;;1.08;;
70800;SDS011;59616;52.170;5.386;2023-06-26T11:42:12;4.57;;;1.15;;
70800;SDS011;59616;52.170;5.386;2023-06-26T11:44:39;4.47;;;1.10;;
70800;SDS011;59616;52.170;5.386;2023-06-26T11:47:07;3.15;;;1.10;;
70800;SDS011;59616;52.170;5.386;2023-06-26T11:49:34;8.60;;;1.35;;
70800;SDS011;59616;52.170;5.386;2023-06-26T11:52:02;5.28;;;1.27;;
70800;SDS011;59616;52.170;5.386;2023-06-26T11:54:30;2.95;;;1.00;;
70800;SDS011;59616;52.170;5.386;2023-06-26T11:56:58;4.68;;;1.15;;
70800;SDS011;59616;52.170;5.386;2023-06-26T11:59:33;2.65;;;1.00;;
70800;SDS011;59616;52.170;5.386;2023-06-26T12:02:01;4.78;;;1.08;;
70800;SDS011;59616;52.170;5.386;2023-06-26T12:04:31;4.40;;;1.23;;
70800;SDS011;59616;52.170;5.386;2023-06-26T12:07:00;7.40;;;1.10;;
70800;SDS011;59616;52.170;5.386;2023-06-26T12:09:31;7.30;;;1.80;;
70800;SDS011;59616;52.170;5.386;2023-06-26T12:11:59;5.20;;;1.15;;
70800;SDS011;59616;52.170;5.386;2023-06-26T12:14:27;4.80;;;0.98;;
70800;SDS011;59616;52.170;5.386;2023-06-26T12:16:55;4.43;;;1.10;;
70800;SDS011;59616;52.170;5.386;2023-06-26T12:19:25;4.35;;;0.90;;
70800;SDS011;59616;52.170;5.386;2023-06-26T12:21:53;5.43;;;1.08;;
70800;SDS011;59616;52.170;5.386;2023-06-26T12:24:23;5.07;;;0.93;;
70800;SDS011;59616;52.170;5.386;2023-06-26T12:26:54;2.33;;;0.88;;
70800;SDS011;59616;52.170;5.386;2023-06-26T12:29:32;4.03;;;1.10;;
70800;SDS011;59616;52.170;5.386;2023-06-26T12:32:01;2.83;;;0.82;;
70800;SDS011;59616;52.170;5.386;2023-06-26T12:34:32;4.18;;;0.95;;
70800;SDS011;59616;52.170;5.386;2023-06-26T12:37:04;3.03;;;0.90;;
70800;SDS011;59616;52.170;5.386;2023-06-26T12:39:54;2.33;;;0.80;;
70800;SDS011;59616;52.170;5.386;2023-06-26T12:42:20;3.97;;;1.10;;
70800;SDS011;59616;52.170;5.386;2023-06-26T12:44:51;4.05;;;1.10;;
70800;SDS011;59616;52.170;5.386;2023-06-26T12:47:23;2.92;;;0.95;;
70800;SDS011;59616;52.170;5.386;2023-06-26T12:49:51;3.15;;;0.98;;
70800;SDS011;59616;52.170;5.386;2023-06-26T12:52:19;5.07;;;1.00;;
70800;SDS011;59616;52.170;5.386;2023-06-26T12:54:46;7.57;;;1.20;;
70800;SDS011;59616;52.170;5.386;2023-06-26T12:57:18;2.58;;;0.95;;
70800;SDS011;59616;52.170;5.386;2023-06-26T12:59:45;3.88;;;1.10;;
70800;SDS011;59616;52.170;5.386;2023-06-26T13:02:12;4.00;;;1.27;;
70800;SDS011;59616;52.170;5.386;2023-06-26T13:04:40;4.43;;;1.05;;
70800;SDS011;59616;52.170;5.386;2023-06-26T13:07:10;3.22;;;1.10;;
70800;SDS011;59616;52.170;5.386;2023-06-26T13:09:38;3.28;;;1.00;;
70800;SDS011;59616;52.170;5.386;2023-06-26T13:12:05;3.55;;;1.00;;
70800;SDS011;59616;52.170;5.386;2023-06-26T13:14:34;4.57;;;1.00;;
70800;SDS011;59616;52.170;5.386;2023-06-26T13:17:01;4.03;;;1.05;;
70800;SDS011;59616;52.170;5.386;2023-06-26T13:19:31;4.47;;;1.00;;
70800;SDS011;59616;52.170;5.386;2023-06-26T13:21:58;6.18;;;1.30;;
70800;SDS011;59616;52.170;5.386;2023-06-26T13:24:26;3.20;;;0.98;;
70800;SDS011;59616;52.170;5.386;2023-06-26T13:26:53;3.05;;;0.88;;
70800;SDS011;59616;52.170;5.386;2023-06-26T13:29:21;5.70;;;1.10;;
70800;SDS011;59616;52.170;5.386;2023-06-26T13:31:49;4.78;;;1.23;;
70800;SDS011;59616;52.170;5.386;2023-06-26T13:34:19;4.30;;;1.10;;
70800;SDS011;59616;52.170;5.386;2023-06-26T13:36:48;5.47;;;1.20;;
70800;SDS011;59616;52.170;5.386;2023-06-26T13:39:15;8.18;;;1.88;;
70800;SDS011;59616;52.170;5.386;2023-06-26T13:41:43;4.07;;;1.10;;
70800;SDS011;59616;52.170;5.386;2023-06-26T13:44:10;2.83;;;0.93;;
70800;SDS011;59616;52.170;5.386;2023-06-26T13:46:55;4.05;;;1.00;;
70800;SDS011;59616;52.170;5.386;2023-06-26T13:49:22;4.88;;;1.20;;
70800;SDS011;59616;52.170;5.386;2023-06-26T13:51:49;4.72;;;1.23;;
70800;SDS011;59616;52.170;5.386;2023-06-26T13:54:17;3.22;;;1.08;;
70800;SDS011;59616;52.170;5.386;2023-06-26T13:56:44;3.40;;;0.90;;
70800;SDS011;59616;52.170;5.386;2023-06-26T13:59:12;2.97;;;0.90;;
70800;SDS011;59616;52.170;5.386;2023-06-26T14:01:39;3.53;;;0.90;;
70800;SDS011;59616;52.170;5.386;2023-06-26T14:04:09;3.67;;;1.10;;
70800;SDS011;59616;52.170;5.386;2023-06-26T14:06:36;4.57;;;1.10;;
70800;SDS011;59616;52.170;5.386;2023-06-26T14:09:03;4.07;;;1.02;;
70800;SDS011;59616;52.170;5.386;2023-06-26T14:11:31;5.60;;;1.20;;
70800;SDS011;59616;52.170;5.386;2023-06-26T14:13:59;6.88;;;1.00;;
70800;SDS011;59616;52.170;5.386;2023-06-26T14:16:26;3.30;;;1.02;;
70800;SDS011;59616;52.170;5.386;2023-06-26T14:18:55;3.35;;;1.00;;
70800;SDS011;59616;52.170;5.386;2023-06-26T14:21:22;4.50;;;1.15;;
70800;SDS011;59616;52.170;5.386;2023-06-26T14:23:50;4.03;;;1.10;;
70800;SDS011;59616;52.170;5.386;2023-06-26T14:26:17;3.50;;;0.95;;
70800;SDS011;59616;52.170;5.386;2023-06-26T14:28:44;6.50;;;1.23;;
70800;SDS011;59616;52.170;5.386;2023-06-26T14:31:12;4.13;;;1.20;;
70800;SDS011;59616;52.170;5.386;2023-06-26T14:33:39;4.05;;;1.30;;
70800;SDS011;59616;52.170;5.386;2023-06-26T14:36:06;5.53;;;1.10;;
70800;SDS011;59616;52.170;5.386;2023-06-26T14:38:34;3.53;;;1.10;;
70800;SDS011;59616;52.170;5.386;2023-06-26T14:41:01;3.63;;;1.00;;
70800;SDS011;59616;52.170;5.386;2023-06-26T14:43:28;2.22;;;0.90;;
70800;SDS011;59616;52.170;5.386;2023-06-26T14:45:56;4.53;;;1.20;;
70800;SDS011;59616;52.170;5.386;2023-06-26T14:48:24;3.40;;;0.95;;
70800;SDS011;59616;52.170;5.386;2023-06-26T14:50:56;2.00;;;1.00;;
70800;SDS011;59616;52.170;5.386;2023-06-26T14:53:23;3.40;;;1.10;;
70800;SDS011;59616;52.170;5.386;2023-06-26T14:55:51;3.90;;;0.93;;
70800;SDS011;59616;52.170;5.386;2023-06-26T14:58:18;5.22;;;1.00;;
70800;SDS011;59616;52.170;5.386;2023-06-26T15:00:45;4.22;;;1.13;;
70800;SDS011;59616;52.170;5.386;2023-06-26T15:03:12;5.43;;;1.30;;